createdAt,value
2023-08-11T00:01:19.439Z,60.90
2023-08-11T00:03:46.578Z,61.25
2023-08-11T00:06:15.086Z,60.97
2023-08-11T00:08:42.401Z,60.90
2023-08-11T00:11:12.345Z,61.03
2023-08-11T00:13:39.397Z,60.52
2023-08-11T00:16:06.537Z,59.67
2023-08-11T00:18:33.621Z,60.60
2023-08-11T00:21:01.105Z,60.89
2023-08-11T00:23:28.146Z,61.00
2023-08-11T00:25:55.152Z,60.16
2023-08-11T00:28:22.373Z,59.93
2023-08-11T00:30:50.521Z,60.71
2023-08-11T00:33:17.529Z,60.25
2023-08-11T00:35:44.554Z,60.45
2023-08-11T00:38:11.737Z,60.58
2023-08-11T00:40:38.757Z,61.25
2023-08-11T00:43:05.773Z,61.49
2023-08-11T00:45:33.002Z,61.01
2023-08-11T00:48:00.226Z,61.03
2023-08-11T00:50:27.406Z,61.21
2023-08-11T00:52:55.025Z,60.77
2023-08-11T00:55:23.015Z,60.85
2023-08-11T00:57:50.080Z,61.11
2023-08-11T01:00:17.472Z,60.91
2023-08-11T01:02:46.349Z,60.71
2023-08-11T01:05:20.265Z,60.31
2023-08-11T01:07:58.100Z,60.22
2023-08-11T01:10:47.587Z,59.77
2023-08-11T01:13:19.387Z,60.41
2023-08-11T01:15:59.732Z,59.92
2023-08-11T01:18:29.610Z,60.17
2023-08-11T01:21:02.847Z,60.20
2023-08-11T01:23:32.640Z,60.45
2023-08-11T01:26:00.139Z,60.28
2023-08-11T01:28:28.612Z,61.08
2023-08-11T01:30:55.830Z,60.71
2023-08-11T01:33:22.892Z,61.41
2023-08-11T01:35:49.905Z,61.28
2023-08-11T01:38:16.884Z,61.40
2023-08-11T01:40:43.930Z,62.04
2023-08-11T01:43:13.588Z,62.30
2023-08-11T01:45:43.957Z,62.87
2023-08-11T01:48:12.382Z,62.80
2023-08-11T01:50:39.608Z,63.11
2023-08-11T01:53:06.789Z,63.07
2023-08-11T01:55:34.398Z,63.17
2023-08-11T01:58:01.775Z,63.63
2023-08-11T02:00:29.619Z,63.37
2023-08-11T02:02:59.807Z,63.67
2023-08-11T02:05:27.867Z,63.80
2023-08-11T02:07:56.693Z,63.95
2023-08-11T02:10:24.572Z,63.63
2023-08-11T02:12:52.172Z,63.96
2023-08-11T02:15:19.907Z,64.12
2023-08-11T02:17:47.079Z,64.45
2023-08-11T02:20:23.236Z,64.44
2023-08-11T02:22:52.206Z,64.48
2023-08-11T02:25:20.471Z,64.76
2023-08-11T02:27:48.174Z,64.55
2023-08-11T02:30:15.787Z,64.64
2023-08-11T02:32:46.576Z,65.02
2023-08-11T02:35:18.134Z,64.82
2023-08-11T02:37:45.156Z,64.89
2023-08-11T02:40:12.436Z,65.25
2023-08-11T02:42:57.615Z,65.07
2023-08-11T02:45:25.247Z,65.39
2023-08-11T02:47:52.842Z,65.66
2023-08-11T02:50:20.062Z,65.56
2023-08-11T02:52:47.250Z,65.48
2023-08-11T02:55:14.242Z,65.37
2023-08-11T02:57:41.572Z,65.71
2023-08-11T03:00:14.423Z,65.56
2023-08-11T03:02:46.988Z,65.50
2023-08-11T03:05:15.992Z,65.67
2023-08-11T03:07:44.523Z,65.67
2023-08-11T03:10:11.629Z,65.17
2023-08-11T03:12:41.630Z,65.28
2023-08-11T03:15:09.902Z,65.24
2023-08-11T03:17:38.268Z,65.43
2023-08-11T03:20:13.678Z,64.96
2023-08-11T03:22:43.426Z,65.06
2023-08-11T03:25:12.686Z,65.37
2023-08-11T03:27:42.846Z,65.39
2023-08-11T03:30:13.448Z,65.32
2023-08-11T03:32:42.984Z,65.16
2023-08-11T03:35:11.166Z,64.81
2023-08-11T03:37:39.560Z,65.40
2023-08-11T03:40:10.771Z,65.24
2023-08-11T03:42:37.778Z,65.89
2023-08-11T03:45:05.828Z,66.03
2023-08-11T03:47:34.275Z,66.34
2023-08-11T03:50:02.866Z,65.78
2023-08-11T03:52:29.909Z,65.76
2023-08-11T03:54:57.670Z,66.04
2023-08-11T03:57:24.743Z,65.82
2023-08-11T03:59:51.844Z,66.03
2023-08-11T04:02:19.088Z,66.07
2023-08-11T04:04:49.674Z,66.47
2023-08-11T04:07:17.745Z,66.15
2023-08-11T04:09:47.472Z,66.23
2023-08-11T04:12:14.669Z,66.83
2023-08-11T04:14:41.683Z,66.72
2023-08-11T04:17:08.766Z,66.79
2023-08-11T04:19:35.776Z,66.91
2023-08-11T04:22:03.004Z,67.08
2023-08-11T04:24:30.796Z,67.07
2023-08-11T04:26:57.805Z,66.72
2023-08-11T04:29:25.235Z,67.22
2023-08-11T04:31:53.054Z,67.20
2023-08-11T04:34:21.189Z,67.09
2023-08-11T04:36:48.245Z,66.86
2023-08-11T04:39:16.651Z,67.00
2023-08-11T04:41:44.566Z,66.86
2023-08-11T04:44:11.627Z,67.03
2023-08-11T04:46:38.681Z,66.97
2023-08-11T04:49:05.943Z,66.74
2023-08-11T04:51:33.371Z,66.81
2023-08-11T04:54:04.179Z,66.96
2023-08-11T04:56:31.710Z,66.80
2023-08-11T04:58:58.752Z,67.02
2023-08-11T05:01:25.832Z,67.02
2023-08-11T05:03:54.052Z,67.63
2023-08-11T05:06:21.116Z,67.51
2023-08-11T05:08:48.686Z,67.30
2023-08-11T05:11:24.286Z,67.09
2023-08-11T05:13:51.295Z,67.32
2023-08-11T05:16:18.437Z,67.47
2023-08-11T05:18:45.457Z,67.68
2023-08-11T05:21:16.297Z,67.15
2023-08-11T05:23:43.284Z,67.38
2023-08-11T05:26:10.421Z,67.37
2023-08-11T05:28:37.498Z,67.63
2023-08-11T05:31:05.613Z,67.83
2023-08-11T05:33:33.162Z,67.91
2023-08-11T05:36:00.191Z,67.79
2023-08-11T05:38:27.451Z,67.84
2023-08-11T05:40:54.420Z,67.90
2023-08-11T05:43:21.519Z,67.95
2023-08-11T05:45:48.557Z,68.30
2023-08-11T05:48:15.635Z,68.01
2023-08-11T05:50:46.265Z,68.28
2023-08-11T05:53:13.595Z,67.95
2023-08-11T05:55:40.903Z,68.66
2023-08-11T05:58:08.120Z,68.55
2023-08-11T06:00:36.063Z,68.79
2023-08-11T06:03:03.566Z,68.91
2023-08-11T06:05:30.631Z,69.04
2023-08-11T06:08:06.046Z,69.07
2023-08-11T06:10:34.658Z,69.60
2023-08-11T06:13:01.971Z,69.60
2023-08-11T06:15:28.990Z,69.39
2023-08-11T06:17:55.988Z,69.26
2023-08-11T06:20:34.350Z,69.40
2023-08-11T06:23:02.026Z,69.12
2023-08-11T06:25:29.038Z,69.24
2023-08-11T06:27:56.064Z,68.89
2023-08-11T06:30:23.206Z,68.93
2023-08-11T06:32:50.377Z,68.89
2023-08-11T06:35:18.452Z,69.03
2023-08-11T06:37:45.647Z,68.76
2023-08-11T06:40:14.551Z,68.90
2023-08-11T06:42:41.577Z,68.91
2023-08-11T06:45:11.069Z,69.15
2023-08-11T06:47:38.477Z,69.22
2023-08-11T06:50:06.139Z,69.41
2023-08-11T06:52:33.176Z,69.27
2023-08-11T06:55:00.245Z,69.73
2023-08-11T06:57:27.280Z,69.78
2023-08-11T06:59:54.365Z,69.81
2023-08-11T07:02:21.516Z,69.67
2023-08-11T07:04:48.997Z,69.86
2023-08-11T07:07:16.044Z,70.00
2023-08-11T07:09:43.065Z,69.86
2023-08-11T07:12:10.195Z,69.01
2023-08-11T07:14:37.205Z,69.15
2023-08-11T07:17:04.744Z,68.75
2023-08-11T07:19:32.099Z,69.67
2023-08-11T07:21:59.098Z,69.79
2023-08-11T07:24:26.162Z,69.18
2023-08-11T07:26:53.222Z,69.29
2023-08-11T07:29:20.232Z,69.13
2023-08-11T07:31:47.433Z,69.03
2023-08-11T07:34:14.474Z,69.25
2023-08-11T07:36:41.825Z,69.51
2023-08-11T07:39:22.227Z,69.98
2023-08-11T07:41:53.928Z,70.24
2023-08-11T07:44:21.129Z,69.25
2023-08-11T07:46:48.225Z,70.11
2023-08-11T07:49:15.287Z,70.41
2023-08-11T07:51:42.647Z,70.50
2023-08-11T07:54:10.679Z,70.57
2023-08-11T07:56:38.117Z,70.75
2023-08-11T07:59:05.308Z,70.71
2023-08-11T08:01:32.975Z,70.60
2023-08-11T08:04:00.110Z,70.68
2023-08-11T08:06:27.117Z,71.14
2023-08-11T08:08:54.138Z,71.01
2023-08-11T08:11:21.722Z,71.08
2023-08-11T08:13:48.880Z,71.33
2023-08-11T08:16:16.108Z,71.35
2023-08-11T08:18:43.254Z,71.48
2023-08-11T08:21:10.278Z,71.26
2023-08-11T08:23:37.352Z,71.47
2023-08-11T08:26:04.428Z,71.17
2023-08-11T08:28:34.353Z,70.58
2023-08-11T08:31:01.623Z,70.61
2023-08-11T08:33:28.669Z,70.93
2023-08-11T08:35:55.744Z,70.96
2023-08-11T08:38:22.753Z,69.29
2023-08-11T08:40:50.107Z,70.56
2023-08-11T08:43:17.779Z,70.08
2023-08-11T08:45:46.056Z,70.81
2023-08-11T08:48:26.881Z,70.56
2023-08-11T08:50:54.353Z,67.66
2023-08-11T08:53:21.982Z,67.68
2023-08-11T08:55:49.195Z,68.92
2023-08-11T08:58:17.126Z,68.83
2023-08-11T09:00:44.378Z,67.58
2023-08-11T09:03:12.561Z,65.08
2023-08-11T09:05:39.702Z,66.61
2023-08-11T09:08:07.510Z,67.52
2023-08-11T09:10:37.571Z,67.85
2023-08-11T09:13:05.119Z,67.99
2023-08-11T09:15:32.236Z,66.76
2023-08-11T09:18:00.831Z,64.16
2023-08-11T09:20:28.187Z,64.01
2023-08-11T09:22:55.173Z,66.07
2023-08-11T09:25:22.313Z,64.98
2023-08-11T09:27:52.317Z,64.01
2023-08-11T09:30:19.473Z,65.04
2023-08-11T09:32:50.509Z,66.41
2023-08-11T09:35:24.856Z,65.85
2023-08-11T09:37:56.423Z,65.38
2023-08-11T09:40:24.083Z,64.31
2023-08-11T09:42:55.009Z,65.58
2023-08-11T09:45:23.659Z,66.80
2023-08-11T09:47:51.260Z,67.08
2023-08-11T09:50:18.558Z,66.38
2023-08-11T09:52:46.623Z,63.16
2023-08-11T09:55:16.292Z,63.49
2023-08-11T09:57:44.949Z,65.77
2023-08-11T10:00:13.755Z,65.26
2023-08-11T10:02:54.594Z,63.77
2023-08-11T10:05:22.134Z,66.47
2023-08-11T10:07:51.546Z,65.96
2023-08-11T10:10:20.779Z,66.29
2023-08-11T10:13:10.145Z,65.65
2023-08-11T10:15:39.418Z,65.06
2023-08-11T10:18:07.877Z,62.46
2023-08-11T10:20:35.263Z,65.09
2023-08-11T10:23:06.539Z,63.73
2023-08-11T10:25:33.945Z,64.05
2023-08-11T10:28:02.209Z,64.04
2023-08-11T10:30:29.659Z,63.22
2023-08-11T10:33:10.310Z,64.52
2023-08-11T10:35:46.707Z,64.99
2023-08-11T10:38:13.968Z,63.13
2023-08-11T10:40:41.433Z,64.87
2023-08-11T10:43:08.458Z,59.81
2023-08-11T10:45:37.354Z,58.77
2023-08-11T10:48:09.696Z,60.86
2023-08-11T10:50:39.057Z,61.62
2023-08-11T10:53:20.701Z,63.36
2023-08-11T10:56:04.292Z,63.17
2023-08-11T10:58:32.220Z,61.21
2023-08-11T11:01:00.085Z,58.52
2023-08-11T11:03:27.498Z,62.96
2023-08-11T11:05:54.815Z,63.24
2023-08-11T11:08:21.864Z,63.01
2023-08-11T11:10:50.832Z,60.90
2023-08-11T11:13:18.483Z,60.68
2023-08-11T11:15:46.077Z,62.63
2023-08-11T11:18:13.551Z,63.14
2023-08-11T11:20:40.629Z,62.76
2023-08-11T11:23:07.690Z,63.11
2023-08-11T11:25:34.831Z,58.14
2023-08-11T11:28:01.853Z,59.81
2023-08-11T11:30:29.024Z,58.76
2023-08-11T11:32:56.084Z,61.51
2023-08-11T11:35:26.167Z,62.63
2023-08-11T11:37:55.007Z,63.34
2023-08-11T11:40:22.066Z,57.01
2023-08-11T11:42:49.114Z,58.83
2023-08-11T11:45:16.296Z,59.09
2023-08-11T11:47:44.164Z,57.82
2023-08-11T11:50:11.485Z,53.99
2023-08-11T11:52:39.045Z,56.65
2023-08-11T11:55:07.358Z,57.73
2023-08-11T11:57:34.960Z,59.61
2023-08-11T12:00:04.609Z,56.57
2023-08-11T12:02:41.396Z,56.73
2023-08-11T12:05:09.499Z,61.05
2023-08-11T12:07:37.795Z,62.21
2023-08-11T12:10:06.889Z,57.55
2023-08-11T12:12:34.329Z,58.53
2023-08-11T12:15:08.928Z,57.96
2023-08-11T12:17:37.035Z,59.58
2023-08-11T12:20:11.254Z,56.63
2023-08-11T12:22:38.276Z,59.69
2023-08-11T12:25:05.567Z,59.44
2023-08-11T12:27:32.661Z,58.20
2023-08-11T12:29:59.673Z,59.27
2023-08-11T12:32:26.793Z,60.88
2023-08-11T12:34:53.856Z,60.11
2023-08-11T12:37:20.929Z,60.96
2023-08-11T12:39:47.939Z,59.49
2023-08-11T12:42:15.038Z,59.24
2023-08-11T12:44:42.546Z,59.13
2023-08-11T12:47:09.684Z,58.43
2023-08-11T12:49:36.703Z,55.85
2023-08-11T12:52:03.814Z,58.54
2023-08-11T12:54:30.839Z,54.44
2023-08-11T12:56:57.875Z,52.45
2023-08-11T12:59:25.877Z,58.33
2023-08-11T13:01:52.994Z,55.90
2023-08-11T13:04:20.027Z,58.61
2023-08-11T13:06:47.041Z,56.84
2023-08-11T13:09:15.689Z,58.22
2023-08-11T13:11:44.016Z,57.15
2023-08-11T13:14:11.454Z,59.07
2023-08-11T13:16:38.996Z,56.49
2023-08-11T13:19:06.471Z,56.98
2023-08-11T13:21:34.014Z,57.00
2023-08-11T13:24:01.588Z,57.96
2023-08-11T13:26:28.822Z,59.71
2023-08-11T13:28:58.370Z,59.53
2023-08-11T13:31:25.981Z,60.39
2023-08-11T13:33:53.143Z,61.29
2023-08-11T13:36:20.215Z,61.25
2023-08-11T13:38:47.812Z,54.45
2023-08-11T13:41:14.830Z,58.90
2023-08-11T13:43:41.836Z,58.02
2023-08-11T13:46:08.916Z,57.74
2023-08-11T13:48:35.970Z,56.03
2023-08-11T13:51:04.500Z,58.12
2023-08-11T13:53:31.740Z,55.26
2023-08-11T13:55:58.787Z,55.49
2023-08-11T13:58:25.868Z,58.04
2023-08-11T14:00:53.008Z,58.72
2023-08-11T14:03:20.054Z,57.43
2023-08-11T14:05:47.095Z,55.19
2023-08-11T14:08:14.182Z,54.16
2023-08-11T14:10:41.172Z,54.90
2023-08-11T14:13:11.335Z,56.99
2023-08-11T14:15:39.613Z,55.35
2023-08-11T14:18:07.464Z,56.45
2023-08-11T14:20:34.782Z,55.28
2023-08-11T14:23:01.956Z,50.87
2023-08-11T14:25:28.974Z,52.87
2023-08-11T14:27:56.055Z,53.92
2023-08-11T14:30:23.177Z,55.25
2023-08-11T14:32:50.321Z,55.45
2023-08-11T14:35:17.493Z,55.43
2023-08-11T14:37:44.540Z,56.60
2023-08-11T14:40:12.153Z,50.39
2023-08-11T14:42:39.209Z,52.79
2023-08-11T14:45:07.214Z,51.58
2023-08-11T14:47:34.277Z,52.34
2023-08-11T14:50:01.301Z,53.35
2023-08-11T14:52:28.425Z,50.79
2023-08-11T14:54:55.414Z,52.28
2023-08-11T14:57:24.507Z,52.30
2023-08-11T14:59:51.564Z,53.05
2023-08-11T15:02:18.649Z,53.94
2023-08-11T15:04:48.627Z,50.79
2023-08-11T15:07:15.668Z,53.80
2023-08-11T15:09:42.802Z,55.39
2023-08-11T15:12:10.423Z,52.59
2023-08-11T15:14:37.727Z,52.43
2023-08-11T15:17:04.909Z,53.92
2023-08-11T15:19:32.012Z,54.07
2023-08-11T15:21:59.501Z,53.30
2023-08-11T15:24:26.518Z,49.51
2023-08-11T15:26:53.731Z,51.25
2023-08-11T15:29:20.775Z,51.33
2023-08-11T15:31:48.048Z,53.25
2023-08-11T15:34:15.108Z,53.06
2023-08-11T15:36:42.424Z,52.32
2023-08-11T15:39:09.569Z,51.54
2023-08-11T15:41:36.623Z,50.65
2023-08-11T15:44:03.961Z,51.14
2023-08-11T15:46:31.124Z,52.62
2023-08-11T15:48:59.024Z,52.33
2023-08-11T15:51:26.083Z,51.47
2023-08-11T15:53:53.097Z,49.23
2023-08-11T15:56:20.145Z,51.11
2023-08-11T15:58:47.534Z,49.37
2023-08-11T16:01:14.763Z,46.66
2023-08-11T16:03:41.930Z,49.77
2023-08-11T16:06:09.055Z,50.75
2023-08-11T16:08:38.749Z,51.76
2023-08-11T16:11:05.979Z,49.99
2023-08-11T16:13:33.008Z,49.58
2023-08-11T16:16:00.203Z,50.21
2023-08-11T16:18:28.758Z,48.94
2023-08-11T16:20:58.844Z,47.92
2023-08-11T16:23:25.968Z,50.14
2023-08-11T16:25:53.000Z,50.17
2023-08-11T16:28:20.037Z,50.98
2023-08-11T16:30:48.533Z,51.33
2023-08-11T16:33:15.580Z,48.49
2023-08-11T16:35:42.598Z,51.17
2023-08-11T16:38:09.613Z,50.65
2023-08-11T16:40:36.612Z,50.76
2023-08-11T16:43:04.332Z,51.27
2023-08-11T16:45:32.275Z,48.30
2023-08-11T16:48:00.895Z,49.99
2023-08-11T16:50:27.915Z,51.83
2023-08-11T16:52:55.019Z,51.51
2023-08-11T16:55:22.902Z,50.90
2023-08-11T16:57:50.964Z,51.94
2023-08-11T17:00:18.303Z,52.37
2023-08-11T17:02:45.554Z,51.50
2023-08-11T17:05:13.136Z,52.15
2023-08-11T17:07:41.676Z,51.18
2023-08-11T17:10:09.401Z,52.21
2023-08-11T17:12:36.716Z,50.35
2023-08-11T17:15:04.657Z,51.04
2023-08-11T17:17:31.734Z,51.13
2023-08-11T17:19:58.956Z,52.51
2023-08-11T17:22:26.117Z,52.09
2023-08-11T17:24:53.113Z,51.31
2023-08-11T17:27:20.101Z,51.05
2023-08-11T17:29:47.962Z,52.29
2023-08-11T17:32:14.963Z,51.83
2023-08-11T17:34:56.481Z,50.61
2023-08-11T17:37:25.270Z,51.94
2023-08-11T17:39:52.668Z,52.44
2023-08-11T17:42:19.960Z,50.96
2023-08-11T17:44:47.003Z,52.83
2023-08-11T17:47:14.193Z,52.79
2023-08-11T17:49:41.300Z,53.17
2023-08-11T17:52:08.572Z,49.55
2023-08-11T17:54:38.613Z,51.24
2023-08-11T17:57:05.628Z,49.82
2023-08-11T17:59:32.710Z,52.37
2023-08-11T18:01:59.831Z,52.24
2023-08-11T18:04:27.098Z,53.03
2023-08-11T18:06:54.198Z,52.32
2023-08-11T18:09:21.198Z,51.91
2023-08-11T18:11:51.725Z,51.91
2023-08-11T18:14:22.741Z,52.36
2023-08-11T18:16:49.974Z,51.85
2023-08-11T18:19:17.022Z,52.01
2023-08-11T18:21:44.104Z,51.39
2023-08-11T18:24:11.181Z,52.25
2023-08-11T18:26:38.216Z,52.10
2023-08-11T18:29:05.437Z,51.85
2023-08-11T18:31:32.494Z,52.04
2023-08-11T18:34:01.242Z,51.79
2023-08-11T18:36:28.658Z,51.66
2023-08-11T18:38:55.729Z,51.94
2023-08-11T18:41:22.777Z,51.89
2023-08-11T18:43:49.816Z,51.77
2023-08-11T18:46:16.878Z,51.70
2023-08-11T18:48:44.052Z,51.79
2023-08-11T18:51:11.595Z,52.26
2023-08-11T18:53:38.669Z,52.41
2023-08-11T18:56:05.694Z,52.39
2023-08-11T18:58:32.905Z,52.45
2023-08-11T19:01:00.129Z,52.19
2023-08-11T19:03:27.383Z,52.58
2023-08-11T19:05:57.877Z,52.60
2023-08-11T19:08:24.935Z,52.49
2023-08-11T19:10:52.085Z,52.52
2023-08-11T19:13:19.193Z,52.62
2023-08-11T19:15:50.375Z,52.64
2023-08-11T19:18:18.002Z,52.89
2023-08-11T19:20:47.673Z,52.23
2023-08-11T19:23:14.926Z,52.53
2023-08-11T19:25:42.211Z,52.87
2023-08-11T19:28:11.892Z,52.40
2023-08-11T19:30:39.000Z,52.95
2023-08-11T19:33:06.124Z,53.23
2023-08-11T19:35:33.179Z,52.82
2023-08-11T19:38:00.444Z,53.26
2023-08-11T19:40:27.513Z,53.02
2023-08-11T19:42:55.062Z,52.94
2023-08-11T19:45:22.186Z,52.95
2023-08-11T19:47:49.202Z,53.27
2023-08-11T19:50:16.318Z,53.14
2023-08-11T19:52:43.382Z,53.17
2023-08-11T19:55:10.891Z,53.18
2023-08-11T19:57:37.896Z,52.70
2023-08-11T20:00:05.634Z,52.73
2023-08-11T20:02:41.384Z,52.82
2023-08-11T20:05:08.794Z,52.63
2023-08-11T20:07:35.829Z,53.13
2023-08-11T20:10:03.002Z,53.07
2023-08-11T20:12:30.066Z,52.53
2023-08-11T20:14:57.243Z,52.75
2023-08-11T20:17:24.298Z,52.81
2023-08-11T20:19:51.312Z,52.57
2023-08-11T20:22:18.465Z,52.77
2023-08-11T20:24:45.639Z,52.85
2023-08-11T20:27:13.090Z,53.19
2023-08-11T20:29:40.361Z,52.92
2023-08-11T20:32:07.589Z,53.02
2023-08-11T20:34:34.684Z,52.94
2023-08-11T20:37:01.790Z,53.12
2023-08-11T20:39:28.821Z,53.27
2023-08-11T20:41:57.001Z,53.62
2023-08-11T20:44:24.834Z,53.56
2023-08-11T20:46:52.394Z,54.05
2023-08-11T20:49:19.426Z,54.30
2023-08-11T20:51:46.523Z,54.73
2023-08-11T20:54:13.647Z,54.66
2023-08-11T20:56:40.707Z,55.19
2023-08-11T20:59:07.808Z,55.26
2023-08-11T21:01:34.883Z,55.38
2023-08-11T21:04:01.981Z,55.38
2023-08-11T21:06:31.585Z,55.44
2023-08-11T21:08:59.702Z,55.40
2023-08-11T21:11:26.962Z,55.44
2023-08-11T21:13:56.017Z,55.37
2023-08-11T21:16:23.432Z,55.53
2023-08-11T21:18:51.451Z,55.79
2023-08-11T21:21:18.506Z,56.16
2023-08-11T21:23:48.798Z,56.42
2023-08-11T21:26:15.955Z,56.36
2023-08-11T21:28:43.006Z,56.63
2023-08-11T21:31:18.225Z,56.67
2023-08-11T21:34:01.858Z,56.77
2023-08-11T21:36:28.896Z,56.62
2023-08-11T21:38:55.963Z,56.63
2023-08-11T21:41:23.187Z,56.78
2023-08-11T21:43:50.949Z,56.41
2023-08-11T21:46:17.973Z,56.48
2023-08-11T21:48:45.128Z,56.58
2023-08-11T21:51:12.307Z,56.75
2023-08-11T21:53:39.369Z,56.64
2023-08-11T21:56:08.458Z,56.84
2023-08-11T21:58:36.171Z,57.21
2023-08-11T22:01:03.434Z,57.54
2023-08-11T22:03:30.696Z,57.52
2023-08-11T22:05:59.049Z,57.42
2023-08-11T22:08:26.106Z,57.48
2023-08-11T22:10:53.174Z,57.92
2023-08-11T22:13:20.239Z,57.76
2023-08-11T22:15:48.305Z,57.78
2023-08-11T22:18:15.421Z,57.82
2023-08-11T22:20:43.760Z,58.06
2023-08-11T22:23:10.769Z,58.25
2023-08-11T22:25:37.781Z,58.09
2023-08-11T22:28:05.503Z,58.23
2023-08-11T22:30:33.326Z,58.12
2023-08-11T22:33:00.508Z,59.06
2023-08-11T22:35:27.671Z,58.96
2023-08-11T22:37:54.678Z,59.20
2023-08-11T22:40:21.685Z,59.08
2023-08-11T22:42:48.757Z,59.22
2023-08-11T22:45:16.319Z,59.05
2023-08-11T22:47:43.679Z,59.56
2023-08-11T22:50:10.813Z,59.49
2023-08-11T22:52:37.875Z,59.58
2023-08-11T22:55:05.532Z,59.44
2023-08-11T22:57:32.620Z,59.29
2023-08-11T22:59:59.815Z,59.72
2023-08-11T23:02:26.891Z,59.65
2023-08-11T23:04:55.237Z,59.55
2023-08-11T23:07:26.147Z,59.69
2023-08-11T23:09:54.290Z,59.69
2023-08-11T23:12:21.506Z,59.81
2023-08-11T23:14:49.335Z,59.88
2023-08-11T23:17:16.371Z,59.63
2023-08-11T23:19:43.398Z,59.83
2023-08-11T23:22:10.442Z,59.62
2023-08-11T23:24:37.609Z,60.22
2023-08-11T23:27:05.002Z,59.85
2023-08-11T23:29:32.232Z,59.88
2023-08-11T23:32:00.566Z,59.86
2023-08-11T23:34:27.620Z,59.93
2023-08-11T23:36:54.633Z,59.87
2023-08-11T23:39:22.411Z,59.77
2023-08-11T23:41:49.455Z,59.85
2023-08-11T23:44:16.471Z,60.00
2023-08-11T23:46:43.549Z,60.08
2023-08-11T23:49:10.649Z,60.06
2023-08-11T23:51:37.711Z,60.04
2023-08-11T23:54:05.031Z,60.09
2023-08-11T23:56:32.086Z,60.39
2023-08-11T23:58:59.187Z,60.08
